VREMENSKI PODATKI

VČERAJ
Time Temp. Dewp. Hum. Smer vet Hitrost ve Wind gust Bar. 1h Prec. 24h Prec.
00:00 12.8 7.7 71 50 0.3 1.1 1016.9 0.0000 0.0000
00:10 12.7 7.6 71 351 0.3 1.7 1016.9 0.0000 0.0000
00:20 12.7 7.6 71 323 0.3 1.1 1016.9 0.0000 0.0000
00:30 12.7 7.6 71 270 0.3 1.1 1016.9 0.0000 0.0000
00:40 12.7 7.6 71 270 0.3 0.8 1016.9 0.0000 0.0000
00:50 12.8 7.7 71 270 0.3 0.8 1016.9 0.0000 0.0000
01:00 12.7 7.6 71 302 0.3 0.8 1016.8 0.0000 0.0000
01:10 12.7 7.6 71 270 0.3 0.8 1016.9 0.0000 0.0000
01:21 12.7 7.6 71 305 0.6 0.8 1016.9 0.0000 0.0000
01:30 12.7 7.6 71 304 0.3 0.8 1016.9 0.0000 0.0000
01:40 12.7 7.6 71 306 0.3 1.1 1016.8 0.0000 0.0000
01:51 12.6 7.5 71 270 0.3 0.8 1016.7 0.0000 0.0000
02:01 12.4 7.3 71 315 0.3 0.8 1016.7 0.0000 0.0000
02:11 12.3 7.2 71 0 0.3 1.7 1016.6 0.0000 0.0000
02:20 12.3 7.2 71 307 0.3 1.1 1016.6 0.0000 0.0000
02:31 12.2 7.1 71 270 0.3 0.8 1016.6 0.0000 0.0000
02:41 12.1 7 71 329 0.6 1.7 1016.5 0.0000 0.0000
02:55 12 6.9 71 90 0.3 1.7 1016.6 0.0000 0.0000
03:05 12 6.9 71 45 0.3 1.7 1016.5 0.0000 0.0000
03:14 12 6.9 71 315 0.3 1.1 1016.4 0.0000 0.0000
03:25 12 6.9 71 302 0.6 1.7 1016.4 0.0000 0.0000
03:35 12.1 7 71 302 0.3 1.7 1016.5 0.0000 0.0000
03:45 12 6.9 71 270 0.3 0.8 1016.4 0.0000 0.0000
03:54 12 6.9 71 315 0.3 1.7 1016.4 0.0000 0.0000
04:05 12.1 7 71 270 0.3 0.8 1016.4 0.0000 0.0000
04:15 12 6.9 71 315 0.3 1.9 1016.3 0.0000 0.0000
04:25 12 6.9 71 302 0.3 0.8 1016.3 0.0000 0.0000
04:35 12 6.9 71 305 0.3 0.8 1016.3 0.0000 0.0000
04:45 12.1 7 71 304 0.3 0.8 1016.3 0.0000 0.0000
04:55 12.1 7 71 270 0.3 0.8 1016.3 0.0000 0.0000
05:05 12.1 7 71 302 0.3 0.8 1016.4 0.0000 0.0000
05:15 12.1 7 71 309 0.3 0.8 1016.3 0.0000 0.0000
05:25 12.1 7 71 270 0.3 0.6 1016.3 0.0000 0.0000
05:35 12 6.9 71 308 0.3 0.6 1016.3 0.0000 0.0000
05:46 12 6.9 71 302 0.3 0.8 1016.3 0.0000 0.0000
05:55 12.1 7 71 310 0.3 0.8 1016.4 0.0000 0.0000
06:05 12.1 7 71 302 0.3 1.1 1016.4 0.0000 0.0000
06:15 12.1 7 71 306 0.3 0.6 1016.4 0.0000 0.0000
06:26 12.1 7 71 270 0.3 0.8 1016.5 0.0000 0.0000
06:35 12 6.9 71 270 0.3 0.8 1016.5 0.0000 0.0000
06:45 12 6.9 71 307 0.3 1.1 1016.6 0.0000 0.0000
06:56 12 6.9 71 302 0.3 0.8 1016.6 0.0000 0.0000
07:06 12 6.9 71 310 0.3 0.6 1016.6 0.0000 0.0000
07:16 12 6.9 71 270 0.3 0.8 1016.6 0.0000 0.0000
07:25 12 6.9 71 306 0.3 0.8 1016.6 0.0000 0.0000
07:36 12 6.9 71 305 0.3 1.1 1016.6 0.0000 0.0000
07:46 12 6.9 71 270 0.3 0.8 1016.6 0.0000 0.0000
07:56 12 6.9 71 309 0.6 1.1 1016.6 0.0000 0.0000
08:06 12.1 7 71 318 0.3 0.8 1016.6 0.0000 0.0000
08:16 12.1 7 71 308 0.3 0.8 1016.6 0.0000 0.0000
08:26 12.1 7 71 309 0.6 1.1 1016.6 0.0000 0.0000
08:36 12.2 7.1 71 315 0.6 0.8 1016.6 0.0000 0.0000
08:46 12.2 7.1 71 304 0.3 1.7 1016.5 0.0000 0.0000
08:56 12.3 7.2 71 315 0.3 0.8 1016.5 0.0000 0.0000
09:06 12.3 7.2 71 311 0.3 1.7 1016.5 0.0000 0.0000
09:17 12.4 7.3 71 310 0.3 0.8 1016.5 0.0000 0.0000
09:28 12.4 7.3 71 270 0.3 0.8 1016.6 0.0000 0.0000
09:38 12.5 7.4 71 319 0.3 1.1 1016.7 0.0000 0.0000
09:48 12.6 7.5 71 315 0.3 0.8 1016.7 0.0000 0.0000
09:58 12.6 7.5 71 306 0.3 1.7 1016.7 0.0000 0.0000
10:08 12.6 7.5 71 315 0.3 1.7 1016.7 0.0000 0.0000
10:18 12.6 7.5 71 315 0.3 0.8 1016.6 0.0000 0.0000
10:28 12.8 7.9 72 270 0.3 1.1 1016.7 0.0000 0.0000
10:38 13.6 8.9 73 324 0.3 0.8 1016.7 0.0000 0.0000
10:48 20.9 15.9 73 90 0.3 0.8 1016.8 0.0000 0.0000
10:58 21.7 16.7 73 90 0.6 1.7 1017 0.0000 0.0000
11:09 22.2 17.1 73 315 0.3 2.2 1017 0.0000 0.0000
11:18 22.6 17.5 73 270 0.3 1.1 1016.9 0.0000 0.0000
11:28 18.4 12.4 68 90 0.6 1.9 1017 0.0000 0.0000
11:39 17 11.1 68 311 0.3 1.1 1016.9 0.0000 0.0000
11:49 16.2 10.5 69 351 0.6 2.2 1016.9 0.0000 0.0000
11:58 15.8 10.3 70 90 0.6 1.7 1016.8 0.0000 0.0000
12:09 15.6 10.2 70 270 0.3 1.1 1016.6 0.0000 0.0000
12:19 15.7 10.5 71 316 0.8 1.7 1016.6 0.0000 0.0000
12:29 15.8 10.6 71 315 0.3 0.8 1016.6 0.0000 0.0000
12:38 15.9 10.7 71 36 0.3 1.1 1016.7 0.0000 0.0000
12:49 15.7 10.5 71 30 0.6 1.9 1016.7 0.0000 0.0000
12:59 15.7 10.5 71 337 0.6 2.2 1016.7 0.0000 0.0000
13:09 15.6 10.2 70 328 0.6 1.1 1016.7 0.0000 0.0000
13:19 15.5 10.1 70 312 0.6 2.5 1016.6 0.0000 0.0000
13:29 15.5 10.1 70 315 0.3 1.1 1016.6 0.0000 0.0000
13:39 15.7 10.3 70 341 0.3 1.7 1016.6 0.0000 0.0000
13:49 15.6 10.2 70 315 0.3 1.1 1016.5 0.0000 0.0000
14:00 15.5 10.1 70 331 0.6 1.7 1016.5 0.0000 0.0000
14:09 15.4 10 70 16 0.6 1.1 1016.4 0.0000 0.0000
14:19 15.3 9.9 70 315 0.6 2.5 1016.4 0.0000 0.0000
14:30 15.4 10 70 326 0.6 1.7 1016.3 0.0000 0.0000
14:40 15.3 9.9 70 21 0.6 1.1 1016.3 0.0000 0.0000
14:50 15.1 9.7 70 315 0.6 1.7 1016.3 0.0000 0.0000
14:59 15 9.6 70 351 0.6 1.9 1016.3 0.0000 0.0000
15:10 15 9.6 70 323 0.6 1.9 1016.3 0.0000 0.0000
15:20 15 9.6 70 344 0.3 1.1 1016.3 0.0000 0.0000
15:30 15 9.6 70 349 0.3 1.7 1016.3 0.0000 0.0000
15:40 15.1 9.7 70 315 0.6 1.9 1016.3 0.0000 0.0000
15:50 15.1 9.7 70 10 0.3 0.8 1016.4 0.0000 0.0000
16:00 15.1 9.5 69 7 0.3 0.8 1016.2 0.0000 0.0000
16:10 15 9.4 69 330 0.3 1.1 1016.1 0.0000 0.0000
16:20 14.8 9.2 69 308 0.6 2.5 1016.2 0.0000 0.0000
16:30 14.7 9.1 69 357 0.6 1.7 1016.2 0.0000 0.0000
16:40 14.6 9 69 3 0.6 1.9 1016.2 0.0000 0.0000
16:51 14.5 8.9 69 311 0.6 0.8 1016.1 0.0000 0.0000
17:01 14.6 9 69 309 0.6 1.7 1016.2 0.0000 0.0000
17:10 14.6 9 69 322 0.3 1.1 1016.2 0.0000 0.0000
17:20 14.6 9 69 315 0.6 1.1 1016.2 0.0000 0.0000
17:31 14.5 8.9 69 315 0.6 1.7 1016.2 0.0000 0.0000
17:41 14.4 8.8 69 315 0.6 1.7 1016.2 0.0000 0.0000
17:50 14.4 8.8 69 315 0.6 1.1 1016.2 0.0000 0.0000
18:01 14.3 8.7 69 315 0.6 1.1 1016.2 0.0000 0.0000
18:11 14.3 8.7 69 304 0.6 0.8 1016.2 0.0000 0.0000
18:21 14.2 8.6 69 308 0.6 0.8 1016.2 0.0000 0.0000
18:30 14.1 8.5 69 299 0.6 1.1 1016.2 0.0000 0.0000
18:41 14.1 8.5 69 304 0.6 0.8 1016.3 0.0000 0.0000
18:51 14 8.4 69 309 0.6 1.1 1016.3 0.0000 0.0000
19:01 13.9 8.3 69 304 0.6 1.1 1016.4 0.0000 0.0000
19:12 13.8 8.2 69 311 0.6 1.1 1016.4 0.0000 0.0000
19:21 13.6 8 69 308 0.6 1.1 1016.5 0.0000 0.0000
19:31 13.5 7.9 69 303 0.6 1.1 1016.6 0.0000 0.0000
19:41 13.5 7.9 69 315 0.6 1.1 1016.7 0.0000 0.0000
19:52 13.4 7.8 69 309 0.6 1.1 1016.7 0.0000 0.0000
20:01 13.3 7.7 69 311 0.6 1.1 1016.7 0.0000 0.0000
20:11 13.2 7.6 69 312 0.6 1.1 1016.8 0.0000 0.0000
20:22 13.1 7.5 69 307 0.6 1.7 1017 0.0000 0.0000
20:32 13.1 7.5 69 312 0.6 1.1 1017.1 0.0000 0.0000
20:41 12.9 7.4 69 322 0.6 1.7 1017 0.0000 0.0000
20:51 12.9 7.4 69 330 0.6 1.1 1017 0.0000 0.0000
21:02 12.8 7.3 69 336 0.6 1.9 1017.1 0.0000 0.0000
21:12 12.7 7.2 69 319 0.3 1.1 1017.1 0.0000 0.0000
21:22 12.7 7.2 69 315 0.6 1.1 1017.2 0.0000 0.0000
21:32 12.6 7.1 69 315 0.6 0.8 1017.3 0.0000 0.0000
21:37 12.6 7.1 69 341 0.3 1.1 1017.3 0.0000 0.0000
21:46 12.6 7.1 69 351 0.6 1.1 1017.3 0.0000 0.0000
21:56 12.5 7 69 325 0.6 1.1 1017.4 0.0000 0.0000
22:07 12.6 7.1 69 307 0.6 1.1 1017.4 0.0000 0.0000
22:17 12.6 7.1 69 312 0.6 0.8 1017.5 0.0000 0.0000
22:26 12.6 7.1 69 307 0.6 1.1 1017.6 0.0000 0.0000
22:40 12.5 7 69 303 0.3 0.8 1017.6 0.0000 0.0000
22:49 12.5 7 69 306 0.6 1.1 1017.7 0.0000 0.0000
23:00 12.4 6.9 69 311 0.6 1.1 1017.7 0.0000 0.0000
23:10 12.4 6.9 69 305 0.6 1.1 1017.7 0.0000 0.0000
23:20 12.3 6.8 69 308 0.6 1.7 1017.8 0.0000 0.0000
23:30 12.3 6.8 69 299 0.6 1.1 1017.8 0.0000 0.0000
23:40 12.2 6.7 69 304 0.6 1.1 1017.8 0.0000 0.0000
23:50 12.2 6.7 69 303 0.3 0.8 1017.7 0.0000 0.0000

DNEVNA STATISTIKA

2021-09-19
TEMPERATURA
POVPREČNO
13.6
VISOKO
22.6
11:18
NIZKO
12.0
02:55
PRITISK
POVPREČNO
1016.7
VISOKO
1017.8
23:20
NIZKO
1016.1
16:10
ROSIŠČE
POVPREČNO
8.3
VISOKO
17.5
11:18
NIZKO
6.7
23:40
VLAŽNOST
POVPREČNO
70
VISOKO
73
10:38
NIZKO
68
11:28
HITROST VETRA
POVPREČNO
0.4
VISOKO
0.8
12:19
WIND GUST
POVPREČNO
1.2
VISOKO
2.5
13:19
SMER VETRA
PREVLADUJOČA
SZ
70.6%
S
10.5
SV
2.8
V
3.5
JV
0.0
J
0.0
JZ
0.0
Z
12.6
SZ
70.6
PADAVINE
PADAVINE URNO
0.0
PADAVINE DNEVNO
0.0
TEMPERATURA (°C)
NIZKO
12.0
VISOKO
22.6
POVPREČNO
13.6
PRITISK (hpa)
NIZKO
1016.1
VISOKO
1017.8
POVPREČNO
1016.7
DEVICE